Time;durP1;ratioP1;P1;durP2;ratioP2;P2;SDS_P1;SDS_P2;PMS_P1;PMS_P2;Temp;Humidity;BMP_temperature;BMP_pressure;BME280_temperature;BME280_humidity;BME280_pressure;Samples;Min_cycle;Max_cycle;Signal;HPM_P1;HPM_P2
2022/10/20 00:00:42;;;;;;;10.50;9.60;;;12.70;99.70;;;;;;5095520;28;20618;-42
2022/10/20 00:03:07;;;;;;;10.87;9.83;;;12.60;99.70;;;;;;5097623;28;20202;-42
2022/10/20 00:05:33;;;;;;;9.90;9.00;;;12.60;99.70;;;;;;5081850;28;20266;-42
2022/10/20 00:07:58;;;;;;;10.50;9.60;;;12.60;99.70;;;;;;5089208;28;20166;-42
2022/10/20 00:10:24;;;;;;;10.53;9.47;;;12.60;99.70;;;;;;5086665;28;20175;-42
2022/10/20 00:12:50;;;;;;;10.20;9.23;;;12.60;99.80;;;;;;5077107;28;20452;-43
2022/10/20 00:15:15;;;;;;;11.60;10.10;;;12.60;99.80;;;;;;5085910;28;20192;-43
2022/10/20 00:17:43;;;;;;;11.73;10.70;;;12.60;99.90;;;;;;5092689;28;20187;-43
2022/10/20 00:20:09;;;;;;;11.80;10.63;;;12.60;99.90;;;;;;5111442;28;20327;-43
2022/10/20 00:22:35;;;;;;;31.50;13.10;;;12.60;99.90;;;;;;5116256;28;20415;-45
2022/10/20 00:25:00;;;;;;;12.27;11.10;;;12.60;99.90;;;;;;5103734;28;20462;-43
2022/10/20 00:27:26;;;;;;;13.60;9.97;;;12.60;99.90;;;;;;5094549;28;20261;-42
2022/10/20 00:29:52;;;;;;;12.40;11.30;;;12.60;99.90;;;;;;5096936;28;20174;-42
2022/10/20 00:32:17;;;;;;;10.83;9.83;;;12.50;99.90;;;;;;5094466;28;20205;-42
2022/10/20 00:34:43;;;;;;;11.67;10.67;;;12.50;99.90;;;;;;5097400;28;20242;-43
2022/10/20 00:37:08;;;;;;;10.63;9.63;;;12.50;99.90;;;;;;5095626;28;20190;-45
2022/10/20 00:39:34;;;;;;;11.23;10.23;;;12.50;99.90;;;;;;5096733;28;20219;-43
2022/10/20 00:42:02;;;;;;;10.77;9.70;;;12.50;99.90;;;;;;5094079;28;20598;-44
2022/10/20 00:44:49;;;;;;;11.07;10.03;;;12.50;99.90;;;;;;5096971;28;20283;-44
2022/10/20 00:47:34;;;;;;;12.37;10.37;;;12.40;99.90;;;;;;5095207;28;20687;-43
2022/10/20 00:50:11;;;;;;;21.03;12.47;;;12.40;99.90;;;;;;5094629;28;20445;-44
2022/10/20 00:52:38;;;;;;;12.47;11.27;;;12.40;99.90;;;;;;5095655;28;20419;-43
2022/10/20 00:55:06;;;;;;;12.07;10.87;;;12.40;99.90;;;;;;5077646;28;20430;-42
2022/10/20 00:57:32;;;;;;;12.80;11.60;;;12.30;99.90;;;;;;5092111;28;20552;-44
2022/10/20 00:59:57;;;;;;;12.20;11.00;;;12.30;99.90;;;;;;5095986;28;20513;-46
2022/10/20 01:02:23;;;;;;;11.03;9.93;;;12.30;99.90;;;;;;5076852;28;20200;-43
2022/10/20 01:04:49;;;;;;;12.47;11.27;;;12.30;99.90;;;;;;5095690;28;20501;-43
2022/10/20 01:07:16;;;;;;;12.20;11.10;;;12.30;99.90;;;;;;5095695;28;20226;-42
2022/10/20 01:09:42;;;;;;;13.67;12.37;;;12.30;99.90;;;;;;5096560;28;20451;-42
2022/10/20 01:12:15;;;;;;;13.30;12.00;;;12.30;99.90;;;;;;5096100;28;20454;-44
2022/10/20 01:14:55;;;;;;;12.50;11.33;;;12.30;99.90;;;;;;5095807;28;20435;-42
2022/10/20 01:17:41;;;;;;;13.97;12.67;;;12.30;99.90;;;;;;5095211;28;20428;-45
2022/10/20 01:20:31;;;;;;;15.97;14.37;;;12.30;99.90;;;;;;5095562;28;20431;-42
2022/10/20 01:23:15;;;;;;;15.07;13.63;;;12.30;99.90;;;;;;5096973;28;20412;-41
2022/10/20 01:25:59;;;;;;;15.00;12.90;;;12.20;99.90;;;;;;5094975;28;20424;-44
2022/10/20 01:28:34;;;;;;;14.43;13.13;;;12.20;99.90;;;;;;5096068;28;20437;-46
2022/10/20 01:31:04;;;;;;;15.30;13.70;;;12.20;99.90;;;;;;5094483;28;20440;-43
2022/10/20 01:33:31;;;;;;;14.50;13.07;;;12.20;99.90;;;;;;5095507;28;20741;-45
2022/10/20 01:36:09;;;;;;;16.90;14.13;;;12.20;99.90;;;;;;5093886;28;20420;-42
2022/10/20 01:38:52;;;;;;;15.73;14.23;;;12.20;99.90;;;;;;5096730;28;20411;-43
2022/10/20 01:41:24;;;;;;;14.77;13.37;;;12.20;99.90;;;;;;5093661;28;20426;-42
2022/10/20 01:43:51;;;;;;;15.53;14.03;;;12.20;99.90;;;;;;5099031;28;20515;-42
2022/10/20 01:46:18;;;;;;;14.93;13.50;;;12.20;99.90;;;;;;5097634;28;20461;-43
2022/10/20 01:48:45;;;;;;;16.03;14.53;;;12.20;99.90;;;;;;5099124;28;20436;-42
2022/10/20 01:51:11;;;;;;;15.50;13.97;;;12.20;99.90;;;;;;5097988;28;20717;-42
2022/10/20 01:53:36;;;;;;;15.67;14.00;;;12.20;99.90;;;;;;5098973;28;20411;-42
2022/10/20 01:56:03;;;;;;;15.97;14.40;;;12.20;99.90;;;;;;5098559;28;20585;-42
2022/10/20 01:58:41;;;;;;;15.20;13.67;;;12.20;99.90;;;;;;5099635;28;20197;-44
2022/10/20 02:01:25;;;;;;;14.60;13.20;;;12.20;99.90;;;;;;5098561;28;20425;-42
2022/10/20 02:03:53;;;;;;;16.07;14.47;;;12.20;99.90;;;;;;5100556;28;20488;-42
2022/10/20 02:06:29;;;;;;;15.67;14.10;;;12.20;99.90;;;;;;5096949;28;20824;-43
2022/10/20 02:08:57;;;;;;;15.10;13.60;;;12.20;99.90;;;;;;5098843;28;20422;-46
2022/10/20 02:11:39;;;;;;;14.57;13.27;;;12.20;99.90;;;;;;5097555;28;20434;-45
2022/10/20 02:14:06;;;;;;;14.37;12.97;;;12.20;99.90;;;;;;5099602;28;20687;-46
2022/10/20 02:16:36;;;;;;;16.13;14.53;;;12.20;99.90;;;;;;5097066;28;20434;-42
2022/10/20 02:19:03;;;;;;;14.43;13.07;;;12.20;99.90;;;;;;5097741;28;20951;-42
2022/10/20 02:21:28;;;;;;;13.77;12.33;;;12.20;99.90;;;;;;5096599;28;20487;-41
2022/10/20 02:23:55;;;;;;;14.47;13.07;;;12.20;99.90;;;;;;5099715;28;20464;-45
2022/10/20 02:26:22;;;;;;;15.23;13.83;;;12.20;99.90;;;;;;5096724;28;20184;-44
2022/10/20 02:28:53;;;;;;;14.50;13.03;;;12.20;99.90;;;;;;5098159;28;20427;-41
2022/10/20 02:31:19;;;;;;;13.47;12.13;;;12.20;99.90;;;;;;5097207;28;20962;-45
2022/10/20 02:33:45;;;;;;;15.67;14.07;;;12.20;99.90;;;;;;5097797;28;20741;-46
2022/10/20 02:36:19;;;;;;;15.07;13.57;;;12.20;99.90;;;;;;5097066;28;20912;-43
2022/10/20 02:38:45;;;;;;;14.73;13.33;;;12.20;99.90;;;;;;5098060;28;20615;-43
2022/10/20 02:41:11;;;;;;;15.10;13.50;;;12.20;99.90;;;;;;5096327;28;20944;-44
2022/10/20 02:43:36;;;;;;;15.07;13.23;;;12.20;99.90;;;;;;5099532;28;20459;-43
2022/10/20 02:46:02;;;;;;;15.27;13.77;;;12.20;99.90;;;;;;5097808;28;20541;-43
2022/10/20 02:48:28;;;;;;;15.40;13.90;;;12.20;99.90;;;;;;5099291;28;20178;-43
2022/10/20 02:50:53;;;;;;;15.47;13.97;;;12.20;99.90;;;;;;5097433;28;20431;-45
2022/10/20 02:53:19;;;;;;;14.77;13.27;;;12.20;99.90;;;;;;5097321;28;20260;-44
2022/10/20 02:55:45;;;;;;;14.43;13.00;;;12.20;99.90;;;;;;5097478;28;20273;-44
2022/10/20 02:58:10;;;;;;;15.83;14.10;;;12.20;99.90;;;;;;5097822;28;20169;-43
2022/10/20 03:00:36;;;;;;;15.53;13.50;;;12.20;99.90;;;;;;5094402;28;20235;-43
2022/10/20 03:03:02;;;;;;;15.17;13.23;;;12.20;99.90;;;;;;5096626;28;20179;-43
2022/10/20 03:05:28;;;;;;;13.83;12.53;;;12.20;99.90;;;;;;5096219;28;20194;-45
2022/10/20 03:07:54;;;;;;;14.13;12.73;;;12.20;99.90;;;;;;5098055;28;20462;-44
2022/10/20 03:10:20;;;;;;;16.83;13.40;;;12.20;99.90;;;;;;5096411;28;20412;-44
2022/10/20 03:12:45;;;;;;;14.23;12.73;;;12.20;99.90;;;;;;5097745;28;20581;-45
2022/10/20 03:15:11;;;;;;;16.17;13.37;;;12.20;99.90;;;;;;5095725;28;20176;-44
2022/10/20 03:17:37;;;;;;;12.50;11.30;;;12.20;99.90;;;;;;5097426;28;20204;-44
2022/10/20 03:20:03;;;;;;;15.00;13.30;;;12.20;99.90;;;;;;5097853;28;20169;-45
2022/10/20 03:22:29;;;;;;;14.27;12.07;;;12.20;99.90;;;;;;5096753;28;20221;-44
2022/10/20 03:24:55;;;;;;;14.23;12.73;;;12.20;99.90;;;;;;5098523;28;20493;-43
2022/10/20 03:27:20;;;;;;;13.40;12.10;;;12.20;99.90;;;;;;5097101;28;20212;-42
2022/10/20 03:29:46;;;;;;;15.60;13.10;;;12.20;99.90;;;;;;5095454;28;20276;-44
2022/10/20 03:32:12;;;;;;;14.17;11.87;;;12.20;99.90;;;;;;5094176;28;20190;-44
2022/10/20 03:34:37;;;;;;;13.70;12.40;;;12.20;99.90;;;;;;5096464;28;20271;-43
2022/10/20 03:37:03;;;;;;;12.83;11.60;;;12.20;99.90;;;;;;5095882;28;20181;-45
2022/10/20 03:39:28;;;;;;;13.33;12.03;;;12.20;99.90;;;;;;5094137;28;20181;-43
2022/10/20 03:41:56;;;;;;;13.40;12.10;;;12.20;99.90;;;;;;5094812;28;20580;-43
2022/10/20 03:44:22;;;;;;;13.10;11.80;;;12.20;99.90;;;;;;5076807;28;20596;-43
2022/10/20 03:46:47;;;;;;;12.30;11.13;;;12.20;99.90;;;;;;5096368;28;20556;-43
2022/10/20 03:49:13;;;;;;;12.70;11.40;;;12.30;99.90;;;;;;5094720;28;20427;-43
2022/10/20 03:51:39;;;;;;;13.20;11.90;;;12.30;99.90;;;;;;5094327;28;20564;-43
2022/10/20 03:54:04;;;;;;;14.40;13.00;;;12.30;99.90;;;;;;5093152;28;20191;-44
2022/10/20 03:56:30;;;;;;;14.03;12.63;;;12.30;99.90;;;;;;5094804;28;20574;-44
2022/10/20 03:58:56;;;;;;;13.00;11.70;;;12.30;99.90;;;;;;5092253;28;20179;-43
2022/10/20 04:01:29;;;;;;;14.50;13.10;;;12.30;99.90;;;;;;5095164;28;20185;-43
2022/10/20 04:03:55;;;;;;;13.20;11.83;;;12.30;99.90;;;;;;5094367;28;20486;-43
2022/10/20 04:06:21;;;;;;;16.17;13.23;;;12.30;99.90;;;;;;5094752;28;20417;-43
2022/10/20 04:08:46;;;;;;;13.77;12.37;;;12.30;99.90;;;;;;5093489;28;20197;-43
2022/10/20 04:11:12;;;;;;;12.70;11.43;;;12.30;99.90;;;;;;5096093;28;20168;-44
2022/10/20 04:13:38;;;;;;;14.40;12.80;;;12.40;99.90;;;;;;5096882;28;20438;-44
2022/10/20 04:16:03;;;;;;;14.10;12.80;;;12.30;99.90;;;;;;5096586;28;20217;-44
2022/10/20 04:18:30;;;;;;;15.37;12.27;;;12.40;99.90;;;;;;5094190;28;20187;-44
2022/10/20 04:20:55;;;;;;;14.53;12.70;;;12.40;99.90;;;;;;5096430;28;20178;-46
2022/10/20 04:23:21;;;;;;;13.63;12.40;;;12.40;99.90;;;;;;5094915;28;20527;-43
2022/10/20 04:25:47;;;;;;;14.27;12.87;;;12.40;99.90;;;;;;5096479;28;20592;-45
2022/10/20 04:28:17;;;;;;;13.40;11.93;;;12.40;99.90;;;;;;5094782;28;20185;-44
2022/10/20 04:30:44;;;;;;;14.13;12.73;;;12.40;99.90;;;;;;5095515;28;20448;-42
2022/10/20 04:33:10;;;;;;;14.93;12.93;;;12.40;99.90;;;;;;5092299;28;20427;-42
2022/10/20 04:35:36;;;;;;;15.97;14.27;;;12.40;99.90;;;;;;5093036;28;20530;-43
2022/10/20 04:38:02;;;;;;;17.23;13.70;;;12.40;99.90;;;;;;5089625;28;20433;-45
2022/10/20 04:40:27;;;;;;;17.00;14.80;;;12.40;99.90;;;;;;5092929;28;20468;-43
2022/10/20 04:42:53;;;;;;;16.00;14.40;;;12.50;99.90;;;;;;5092495;28;20192;-41
2022/10/20 04:45:19;;;;;;;14.80;13.27;;;12.50;99.90;;;;;;5094655;28;20622;-43
2022/10/20 04:47:44;;;;;;;16.77;15.00;;;12.40;99.90;;;;;;5094057;28;20176;-44
2022/10/20 04:50:10;;;;;;;15.07;13.57;;;12.40;99.90;;;;;;5078155;28;20171;-47
2022/10/20 04:52:36;;;;;;;17.00;15.20;;;12.40;99.90;;;;;;5092228;28;20445;-44
2022/10/20 04:55:04;;;;;;;15.00;13.50;;;12.40;99.90;;;;;;5093823;28;20164;-44
2022/10/20 04:57:30;;;;;;;14.23;12.80;;;12.50;99.90;;;;;;5073822;28;20186;-43
2022/10/20 04:59:55;;;;;;;16.90;13.73;;;12.40;99.90;;;;;;5093799;28;20417;-43
2022/10/20 05:02:21;;;;;;;15.67;14.07;;;12.50;99.90;;;;;;5075588;28;20178;-43
2022/10/20 05:04:47;;;;;;;17.17;14.90;;;12.40;99.90;;;;;;5092172;28;20207;-44
2022/10/20 05:07:13;;;;;;;17.33;14.07;;;12.40;99.90;;;;;;5090963;28;20436;-42
2022/10/20 05:09:38;;;;;;;16.03;14.30;;;12.40;99.90;;;;;;5091672;28;20165;-44
2022/10/20 05:12:04;;;;;;;15.00;13.50;;;12.40;99.90;;;;;;5090637;28;20178;-43
2022/10/20 05:14:31;;;;;;;16.57;14.90;;;12.40;99.90;;;;;;5087817;28;20186;-43
2022/10/20 05:16:57;;;;;;;16.57;14.83;;;12.40;99.90;;;;;;5088445;28;20374;-43
2022/10/20 05:19:23;;;;;;;16.43;14.57;;;12.40;99.90;;;;;;5092585;28;20435;-43
2022/10/20 05:21:48;;;;;;;15.60;14.10;;;12.40;99.90;;;;;;5092784;28;20419;-43
2022/10/20 05:24:16;;;;;;;18.67;15.13;;;12.40;99.90;;;;;;5092715;28;20248;-43
2022/10/20 05:26:41;;;;;;;15.87;14.17;;;12.40;99.90;;;;;;5095435;28;20171;-44
2022/10/20 05:29:09;;;;;;;16.03;14.43;;;12.40;99.90;;;;;;5094204;28;20428;-43
2022/10/20 05:31:42;;;;;;;15.73;14.13;;;12.40;99.90;;;;;;5095092;28;20206;-43
2022/10/20 05:34:09;;;;;;;16.57;14.87;;;12.40;99.90;;;;;;5092687;28;20884;-43
2022/10/20 05:36:35;;;;;;;16.47;14.67;;;12.40;99.90;;;;;;5095886;28;20745;-43
2022/10/20 05:39:01;;;;;;;15.80;14.20;;;12.40;99.90;;;;;;5080017;28;20550;-44
2022/10/20 05:41:28;;;;;;;17.00;15.07;;;12.40;99.90;;;;;;5077548;28;20424;-42
2022/10/20 05:43:57;;;;;;;15.37;13.80;;;12.40;99.90;;;;;;5093663;28;21219;-44
2022/10/20 05:46:28;;;;;;;18.73;15.30;;;12.40;99.90;;;;;;5088191;28;20489;-43
2022/10/20 05:48:56;;;;;;;15.83;14.23;;;12.40;99.90;;;;;;5093065;28;20430;-43
2022/10/20 05:51:23;;;;;;;16.90;15.20;;;12.40;99.90;;;;;;5094811;28;20409;-43
2022/10/20 05:53:50;;;;;;;18.17;16.17;;;12.40;99.90;;;;;;5093932;28;21000;-42
2022/10/20 05:56:18;;;;;;;16.80;15.10;;;12.50;99.90;;;;;;5096176;28;20424;-44
2022/10/20 05:58:44;;;;;;;17.97;16.10;;;12.40;99.90;;;;;;5093955;28;20422;-43
2022/10/20 06:01:16;;;;;;;16.97;14.77;;;12.40;99.90;;;;;;5095922;28;20481;-45
2022/10/20 06:03:45;;;;;;;16.53;14.83;;;12.40;99.90;;;;;;5092319;28;20525;-43
2022/10/20 06:06:12;;;;;;;17.80;15.90;;;12.50;99.90;;;;;;5094052;28;20421;-43
2022/10/20 06:08:38;;;;;;;17.00;14.60;;;12.50;99.90;;;;;;5093303;28;20420;-45
2022/10/20 06:11:05;;;;;;;16.00;13.80;;;12.50;99.90;;;;;;5095086;28;20485;-42
2022/10/20 06:13:32;;;;;;;18.03;16.10;;;12.50;99.90;;;;;;5096528;28;20196;-45
2022/10/20 06:16:05;;;;;;;16.47;14.77;;;12.50;99.90;;;;;;5096282;28;20848;-42
2022/10/20 06:18:31;;;;;;;15.93;14.23;;;12.60;99.90;;;;;;5095548;28;20433;-42
2022/10/20 06:21:20;;;;;;;15.00;13.50;;;12.60;99.90;;;;;;5094630;28;20750;-43
2022/10/20 06:23:47;;;;;;;17.10;14.30;;;12.60;99.90;;;;;;5088453;28;20477;-44
2022/10/20 06:26:16;;;;;;;16.80;14.47;;;12.60;99.90;;;;;;5074319;28;20401;-41
2022/10/20 06:28:42;;;;;;;18.47;15.33;;;12.70;99.90;;;;;;5071716;28;20756;-44
2022/10/20 06:31:18;;;;;;;16.67;14.17;;;12.70;99.90;;;;;;5075173;28;20411;-44
2022/10/20 06:33:44;;;;;;;16.43;14.73;;;12.80;99.90;;;;;;5075811;28;20899;-44
2022/10/20 06:36:11;;;;;;;17.43;15.37;;;12.80;99.90;;;;;;5096059;28;20514;-42
2022/10/20 06:38:38;;;;;;;17.07;15.10;;;12.90;99.90;;;;;;5093554;28;20173;-43
2022/10/20 06:41:05;;;;;;;16.20;14.50;;;12.90;99.90;;;;;;5095801;28;20449;-43
2022/10/20 06:43:31;;;;;;;15.67;14.07;;;13.00;99.90;;;;;;5094693;28;20466;-42
2022/10/20 06:45:58;;;;;;;18.03;16.23;;;13.00;99.90;;;;;;5092877;28;21050;-43
2022/10/20 06:48:24;;;;;;;14.83;13.10;;;13.10;99.90;;;;;;5091668;28;20169;-45
2022/10/20 06:50:58;;;;;;;8.37;6.37;;;13.20;99.90;;;;;;5090585;28;20411;-41
2022/10/20 06:53:25;;;;;;;10.70;8.57;;;13.70;99.90;;;;;;5091374;28;20437;-43
2022/10/20 06:55:57;;;;;;;9.13;8.07;;;14.10;99.90;;;;;;5094398;28;20420;-42
2022/10/20 06:58:23;;;;;;;8.40;6.90;;;14.40;99.90;;;;;;5091923;28;20495;-42
2022/10/20 07:01:04;;;;;;;8.67;7.80;;;14.80;99.90;;;;;;5093344;28;20434;-42
2022/10/20 07:03:31;;;;;;;8.70;7.87;;;15.10;99.90;;;;;;5094299;28;20237;-43
2022/10/20 07:05:57;;;;;;;8.40;7.53;;;15.40;99.90;;;;;;5094926;28;20427;-42
2022/10/20 07:08:23;;;;;;;9.00;7.73;;;15.70;99.90;;;;;;5094464;28;20438;-41
2022/10/20 07:11:11;;;;;;;7.27;6.60;;;15.90;99.90;;;;;;5094797;28;20830;-43
2022/10/20 07:13:37;;;;;;;7.80;7.10;;;16.20;99.90;;;;;;5083299;28;20510;-41
2022/10/20 07:16:04;;;;;;;9.13;8.00;;;16.40;99.90;;;;;;5094597;28;20523;-42
2022/10/20 07:18:30;;;;;;;9.47;8.57;;;16.60;99.90;;;;;;5092337;28;20515;-42
2022/10/20 07:21:01;;;;;;;9.03;8.13;;;16.80;99.90;;;;;;5093147;28;20533;-41
2022/10/20 07:23:28;;;;;;;8.37;7.37;;;17.00;99.90;;;;;;5091263;28;20479;-42
2022/10/20 07:26:05;;;;;;;8.93;8.03;;;17.10;99.90;;;;;;5094146;28;20415;-45
2022/10/20 07:28:32;;;;;;;8.17;7.30;;;17.30;99.60;;;;;;5095252;28;20683;-42
2022/10/20 07:31:05;;;;;;;8.23;7.40;;;17.50;99.30;;;;;;5095188;28;20507;-42
2022/10/20 07:33:31;;;;;;;7.63;6.83;;;17.70;99.00;;;;;;5093671;28;20476;-41
2022/10/20 07:35:57;;;;;;;8.17;7.13;;;17.90;98.60;;;;;;5093885;28;20825;-42
2022/10/20 07:38:23;;;;;;;7.70;6.90;;;18.10;98.30;;;;;;5090563;28;20547;-41
2022/10/20 07:40:49;;;;;;;7.60;6.53;;;18.30;97.90;;;;;;5091738;28;20669;-44
2022/10/20 07:43:14;;;;;;;7.63;6.93;;;18.60;97.50;;;;;;5090522;28;20438;-44
2022/10/20 07:45:40;;;;;;;7.53;6.80;;;18.70;96.80;;;;;;5091411;28;20170;-41
2022/10/20 07:48:08;;;;;;;6.77;6.07;;;19.00;96.60;;;;;;5090412;28;20185;-41
2022/10/20 07:50:37;;;;;;;7.37;6.60;;;19.20;96.20;;;;;;5091165;28;20172;-41
2022/10/20 07:53:05;;;;;;;7.07;6.17;;;19.40;95.60;;;;;;5089703;28;20544;-43
2022/10/20 07:55:31;;;;;;;6.53;5.93;;;19.60;95.20;;;;;;5092616;28;20416;-42
2022/10/20 07:57:56;;;;;;;6.50;6.00;;;19.80;94.80;;;;;;5092250;28;20428;-43
2022/10/20 08:00:22;;;;;;;7.70;7.00;;;19.90;94.40;;;;;;5082206;28;20434;-44
2022/10/20 08:02:48;;;;;;;7.43;6.73;;;20.00;94.00;;;;;;5074740;28;20185;-43
2022/10/20 08:05:13;;;;;;;6.60;5.97;;;19.90;93.60;;;;;;5073922;28;20207;-43
2022/10/20 08:07:39;;;;;;;7.20;6.60;;;19.90;93.60;;;;;;5070270;28;20189;-41
2022/10/20 08:10:06;;;;;;;7.10;6.40;;;19.80;93.50;;;;;;5070581;28;20235;-42
2022/10/20 08:12:31;;;;;;;6.90;6.20;;;19.90;93.60;;;;;;5070708;28;20415;-45
2022/10/20 08:14:57;;;;;;;7.07;6.47;;;20.10;93.50;;;;;;5071140;28;20414;-41
2022/10/20 08:17:23;;;;;;;7.43;6.67;;;20.30;93.00;;;;;;5070536;28;20283;-41
2022/10/20 08:19:48;;;;;;;7.33;6.73;;;20.60;92.80;;;;;;5071196;28;20429;-41
2022/10/20 08:22:15;;;;;;;8.37;6.47;;;20.80;92.40;;;;;;5070218;28;20415;-43
2022/10/20 08:24:40;;;;;;;7.10;6.40;;;21.10;91.80;;;;;;5072044;28;20550;-44
2022/10/20 08:27:06;;;;;;;7.13;6.53;;;21.40;91.40;;;;;;5071967;28;20430;-41
2022/10/20 08:29:31;;;;;;;6.80;6.20;;;21.70;90.90;;;;;;5071462;28;20185;-42
2022/10/20 08:31:57;;;;;;;6.00;5.50;;;21.90;90.50;;;;;;5073281;28;20160;-41
2022/10/20 08:34:23;;;;;;;5.80;5.30;;;22.10;90.10;;;;;;5071747;28;20483;-44
2022/10/20 08:36:48;;;;;;;7.60;6.90;;;22.30;89.30;;;;;;5073931;28;20169;-43
2022/10/20 08:39:14;;;;;;;8.30;7.60;;;22.60;88.40;;;;;;5070363;28;20191;-43
2022/10/20 08:41:45;;;;;;;7.53;6.93;;;22.70;87.10;;;;;;5073221;28;20190;-44
2022/10/20 08:44:27;;;;;;;6.63;6.03;;;22.80;86.10;;;;;;5071367;28;20586;-43
2022/10/20 08:46:52;;;;;;;7.03;6.33;;;23.00;85.60;;;;;;5072796;28;20462;-43
2022/10/20 08:49:26;;;;;;;7.27;6.57;;;23.00;84.40;;;;;;5073951;28;20715;-41
2022/10/20 08:51:53;;;;;;;6.63;5.27;;;23.00;83.60;;;;;;5075879;28;20174;-43
2022/10/20 08:54:18;;;;;;;6.07;5.57;;;22.90;83.60;;;;;;5075609;28;20433;-42
2022/10/20 08:56:45;;;;;;;6.00;5.50;;;22.80;83.40;;;;;;5076212;28;20276;-42
2022/10/20 08:59:33;;;;;;;7.53;6.20;;;22.90;83.00;;;;;;5075931;28;20575;-42
2022/10/20 09:01:59;;;;;;;8.37;7.50;;;23.00;82.40;;;;;;5076261;28;20422;-43
2022/10/20 09:04:33;;;;;;;6.20;5.60;;;23.10;80.90;;;;;;5075256;28;20552;-42
2022/10/20 09:07:09;;;;;;;6.00;5.40;;;23.10;80.70;;;;;;5075743;28;20419;-44
2022/10/20 09:09:35;;;;;;;5.87;5.37;;;23.00;80.40;;;;;;5073827;28;20527;-42
2022/10/20 09:12:04;;;;;;;6.20;5.70;;;22.90;80.70;;;;;;5076165;28;20510;-42
2022/10/20 09:14:33;;;;;;;6.00;5.50;;;22.80;80.50;;;;;;5058156;28;20711;-42
2022/10/20 09:16:59;;;;;;;5.77;5.27;;;22.70;80.70;;;;;;5076738;28;20821;-44
2022/10/20 09:19:26;;;;;;;6.10;5.53;;;22.60;81.00;;;;;;5074278;28;20421;-42
2022/10/20 09:21:56;;;;;;;5.40;5.00;;;22.50;81.20;;;;;;5077234;28;20182;-44
2022/10/20 09:24:23;;;;;;;10.30;5.70;;;22.50;81.10;;;;;;5071866;28;21035;-43
2022/10/20 09:26:50;;;;;;;6.07;5.67;;;22.50;81.20;;;;;;5076427;28;20779;-43
2022/10/20 09:29:16;;;;;;;6.83;6.23;;;22.50;81.40;;;;;;5076746;28;20842;-45
2022/10/20 09:31:44;;;;;;;5.90;5.40;;;22.50;81.40;;;;;;5076790;28;20398;-46
2022/10/20 09:34:26;;;;;;;7.30;6.70;;;22.30;81.20;;;;;;5075557;28;20759;-44
2022/10/20 09:37:12;;;;;;;5.80;4.90;;;22.20;81.50;;;;;;5075588;28;20457;-43
2022/10/20 09:39:53;;;;;;;5.43;4.93;;;22.10;82.10;;;;;;5073455;28;20606;-44
2022/10/20 09:42:23;;;;;;;5.07;4.67;;;22.00;82.60;;;;;;5076279;28;20418;-43
2022/10/20 09:45:14;;;;;;;5.30;4.80;;;21.90;83.00;;;;;;5075793;28;20466;-42
2022/10/20 09:47:43;;;;;;;6.50;4.53;;;21.70;83.40;;;;;;5071359;28;20705;-43
2022/10/20 09:50:18;;;;;;;5.30;4.90;;;21.70;83.80;;;;;;5073823;28;20524;-42
2022/10/20 09:52:46;;;;;;;5.97;5.40;;;21.60;84.10;;;;;;5074423;28;20495;-43
2022/10/20 09:55:35;;;;;;;5.30;4.90;;;21.50;84.30;;;;;;5074247;28;20494;-43
2022/10/20 09:58:03;;;;;;;4.47;4.03;;;21.50;84.60;;;;;;5077509;28;20426;-43
2022/10/20 10:00:47;;;;;;;6.50;5.27;;;21.60;84.70;;;;;;5094018;28;20429;-45
2022/10/20 10:03:21;;;;;;;5.47;5.07;;;21.70;84.80;;;;;;5095465;28;20434;-47
2022/10/20 10:05:53;;;;;;;5.87;4.93;;;21.80;84.70;;;;;;5093807;28;20431;-41
2022/10/20 10:08:20;;;;;;;8.50;5.73;;;22.00;84.40;;;;;;5094101;28;20406;-43
2022/10/20 10:11:01;;;;;;;5.50;5.00;;;22.20;84.20;;;;;;5093480;28;20529;-46
2022/10/20 10:13:29;;;;;;;4.90;4.50;;;22.30;83.40;;;;;;5094564;28;20947;-45
2022/10/20 10:16:00;;;;;;;5.53;5.03;;;22.30;83.00;;;;;;5091018;28;20438;-45
2022/10/20 10:18:25;;;;;;;5.83;5.33;;;22.40;82.90;;;;;;5093037;28;20491;-45
2022/10/20 10:21:00;;;;;;;5.90;5.43;;;22.40;82.80;;;;;;5092562;28;20562;-43
2022/10/20 10:23:28;;;;;;;5.43;5.03;;;22.60;82.80;;;;;;5091600;28;20266;-43
2022/10/20 10:25:54;;;;;;;5.90;5.40;;;22.70;82.50;;;;;;5089760;28;20445;-43
2022/10/20 10:28:30;;;;;;;5.27;4.77;;;22.90;81.70;;;;;;5094373;28;20707;-42
2022/10/20 10:31:16;;;;;;;5.53;5.13;;;23.10;81.20;;;;;;5091898;28;20175;-44
2022/10/20 10:33:41;;;;;;;6.33;4.93;;;23.40;80.60;;;;;;5093176;28;20911;-42
2022/10/20 10:36:19;;;;;;;5.10;4.63;;;23.60;80.00;;;;;;5090513;28;20530;-44
2022/10/20 10:38:45;;;;;;;5.00;4.60;;;23.70;79.00;;;;;;5091860;28;20347;-42
2022/10/20 10:41:43;;;;;;;7.47;4.87;;;23.50;78.50;;;;;;5089401;28;20442;-43
2022/10/20 10:44:27;;;;;;;5.20;4.80;;;23.40;78.40;;;;;;5082525;28;20232;-44
2022/10/20 10:47:57;;;;;;;5.10;4.77;;;23.10;78.70;;;;;;5093820;28;20686;-43
2022/10/20 10:51:02;;;;;;;5.37;4.87;;;22.80;79.20;;;;;;5029572;28;20445;-43
2022/10/20 10:53:46;;;;;;;5.17;4.00;;;22.50;79.80;;;;;;5092029;28;20501;-42
2022/10/20 10:56:20;;;;;;;5.93;4.40;;;22.30;80.60;;;;;;5091392;28;20519;-42
2022/10/20 10:58:51;;;;;;;5.93;5.40;;;22.20;81.10;;;;;;5094648;28;20468;-43
2022/10/20 11:01:41;;;;;;;5.23;4.73;;;22.10;81.20;;;;;;5093941;28;20416;-42
2022/10/20 11:04:22;;;;;;;6.97;5.73;;;22.10;81.40;;;;;;5093948;28;20896;-43
2022/10/20 11:06:47;;;;;;;5.87;4.60;;;22.10;81.60;;;;;;5093131;28;20684;-44
2022/10/20 11:09:22;;;;;;;5.27;4.77;;;22.10;81.70;;;;;;5088929;28;20554;-44
2022/10/20 11:11:53;;;;;;;4.90;4.10;;;22.10;81.60;;;;;;5090323;28;20179;-44
2022/10/20 11:14:18;;;;;;;7.30;3.97;;;22.10;81.70;;;;;;5092181;28;20412;-45
2022/10/20 11:17:02;;;;;;;5.80;5.30;;;22.20;81.80;;;;;;5095027;28;20411;-42
2022/10/20 11:19:39;;;;;;;5.17;4.70;;;22.20;81.80;;;;;;5090547;28;20169;-45
2022/10/20 11:22:25;;;;;;;5.90;5.13;;;22.20;81.80;;;;;;5092113;28;20466;-43
2022/10/20 11:25:15;;;;;;;8.20;5.37;;;22.20;81.80;;;;;;5090135;28;20487;-42
2022/10/20 11:27:41;;;;;;;7.40;5.23;;;22.20;82.00;;;;;;5091440;28;20521;-44
2022/10/20 11:30:15;;;;;;;5.13;4.40;;;22.10;82.00;;;;;;5090282;28;20594;-43
2022/10/20 11:33:11;;;;;;;5.30;4.87;;;22.10;82.30;;;;;;5089679;28;20242;-43
2022/10/20 11:35:53;;;;;;;5.03;4.63;;;22.00;82.50;;;;;;5090143;28;20626;-43
2022/10/20 11:38:34;;;;;;;4.80;4.40;;;22.00;82.80;;;;;;5089657;28;20531;-43
2022/10/20 11:41:17;;;;;;;7.97;4.53;;;22.00;83.00;;;;;;5092943;28;20392;-43
2022/10/20 11:43:58;;;;;;;4.93;4.53;;;21.90;83.20;;;;;;5090589;28;20480;-43
2022/10/20 11:46:36;;;;;;;5.47;4.43;;;21.80;83.30;;;;;;5089525;28;20538;-45
2022/10/20 11:49:03;;;;;;;5.33;4.83;;;21.80;83.70;;;;;;5090182;28;20427;-42
2022/10/20 11:51:29;;;;;;;5.47;4.97;;;21.70;83.90;;;;;;5087637;28;20451;-43
2022/10/20 11:54:32;;;;;;;5.03;4.53;;;21.60;84.10;;;;;;5092433;28;20455;-43
2022/10/20 11:57:43;;;;;;;5.17;4.77;;;21.50;84.40;;;;;;5088330;28;20182;-45
2022/10/20 12:00:15;;;;;;;5.23;4.73;;;21.40;84.80;;;;;;5092836;28;20412;-42
2022/10/20 12:03:02;;;;;;;5.00;4.50;;;21.30;85.10;;;;;;5086483;28;20446;-43
2022/10/20 12:05:55;;;;;;;4.47;4.17;;;21.30;85.50;;;;;;5090813;28;20485;-43
2022/10/20 12:08:33;;;;;;;4.70;4.30;;;21.30;85.80;;;;;;5088165;28;20578;-46
2022/10/20 12:11:08;;;;;;;5.67;5.23;;;21.40;85.90;;;;;;5072881;28;20445;-43
2022/10/20 12:13:57;;;;;;;5.20;4.70;;;21.50;85.90;;;;;;5090694;28;20423;-41
2022/10/20 12:16:51;;;;;;;6.27;5.67;;;21.60;85.70;;;;;;5089174;28;20511;-43
2022/10/20 12:19:27;;;;;;;4.90;4.50;;;21.60;85.40;;;;;;5091704;28;20413;-42
2022/10/20 12:22:25;;;;;;;6.33;4.83;;;21.50;85.20;;;;;;5092913;28;20437;-46
2022/10/20 12:24:53;;;;;;;6.00;5.27;;;21.40;85.00;;;;;;5088875;28;20467;-43
2022/10/20 12:27:26;;;;;;;6.40;5.70;;;21.20;85.00;;;;;;5087317;28;20492;-44
2022/10/20 12:29:59;;;;;;;5.40;4.57;;;21.10;85.30;;;;;;5088060;28;20502;-46
2022/10/20 12:32:35;;;;;;;6.10;4.90;;;21.00;85.70;;;;;;5085098;28;20470;-44
2022/10/20 12:35:25;;;;;;;5.40;4.70;;;20.90;86.10;;;;;;5089549;28;20836;-44
2022/10/20 12:38:03;;;;;;;4.73;4.33;;;20.70;86.40;;;;;;5090460;28;20847;-43
2022/10/20 12:40:50;;;;;;;5.73;5.10;;;20.60;86.90;;;;;;5092515;28;20423;-44
2022/10/20 12:43:29;;;;;;;5.03;4.53;;;20.40;87.40;;;;;;5094101;28;20436;-45
2022/10/20 12:46:09;;;;;;;5.60;5.10;;;20.30;87.90;;;;;;5093469;28;20416;-45
2022/10/20 12:48:41;;;;;;;6.07;5.50;;;20.20;88.50;;;;;;5090390;28;20414;-44
2022/10/20 12:51:13;;;;;;;5.07;4.67;;;20.10;89.00;;;;;;5091917;28;20425;-45
2022/10/20 12:53:39;;;;;;;7.40;4.73;;;20.00;89.70;;;;;;5090616;28;20430;-45